sensor_id;sensor_type;location;lat;lon;timestamp;P1;durP1;ratioP1;P2;durP2;ratioP2
25327;SDS011;13279;51.300;12.394;2023-07-31T00:01:41;8.33;;;2.10;;
25327;SDS011;13279;51.300;12.394;2023-07-31T00:04:08;5.27;;;1.90;;
25327;SDS011;13279;51.300;12.394;2023-07-31T00:06:35;7.70;;;2.00;;
25327;SDS011;13279;51.300;12.394;2023-07-31T00:09:04;7.00;;;2.13;;
25327;SDS011;13279;51.300;12.394;2023-07-31T00:11:32;7.20;;;1.70;;
25327;SDS011;13279;51.300;12.394;2023-07-31T00:13:59;3.90;;;1.70;;
25327;SDS011;13279;51.300;12.394;2023-07-31T00:16:27;6.77;;;2.63;;
25327;SDS011;13279;51.300;12.394;2023-07-31T00:18:54;4.70;;;1.93;;
25327;SDS011;13279;51.300;12.394;2023-07-31T00:21:22;5.70;;;2.00;;
25327;SDS011;13279;51.300;12.394;2023-07-31T00:23:49;6.93;;;2.03;;
25327;SDS011;13279;51.300;12.394;2023-07-31T00:26:18;8.67;;;2.00;;
25327;SDS011;13279;51.300;12.394;2023-07-31T00:28:46;5.80;;;2.50;;
25327;SDS011;13279;51.300;12.394;2023-07-31T00:31:13;7.67;;;2.40;;
25327;SDS011;13279;51.300;12.394;2023-07-31T00:33:41;2.97;;;1.80;;
25327;SDS011;13279;51.300;12.394;2023-07-31T00:36:09;3.03;;;1.83;;
25327;SDS011;13279;51.300;12.394;2023-07-31T00:38:36;5.67;;;2.43;;
25327;SDS011;13279;51.300;12.394;2023-07-31T00:41:05;7.43;;;1.93;;
25327;SDS011;13279;51.300;12.394;2023-07-31T00:43:34;4.77;;;1.63;;
25327;SDS011;13279;51.300;12.394;2023-07-31T00:46:02;7.33;;;2.17;;
25327;SDS011;13279;51.300;12.394;2023-07-31T00:48:30;12.93;;;2.00;;
25327;SDS011;13279;51.300;12.394;2023-07-31T00:50:58;6.17;;;1.80;;
25327;SDS011;13279;51.300;12.394;2023-07-31T00:53:27;3.93;;;1.70;;
25327;SDS011;13279;51.300;12.394;2023-07-31T00:55:55;5.17;;;2.10;;
25327;SDS011;13279;51.300;12.394;2023-07-31T00:58:22;6.33;;;2.20;;
25327;SDS011;13279;51.300;12.394;2023-07-31T01:00:52;6.93;;;1.60;;
25327;SDS011;13279;51.300;12.394;2023-07-31T01:03:20;3.40;;;1.80;;
25327;SDS011;13279;51.300;12.394;2023-07-31T01:05:49;5.20;;;1.47;;
25327;SDS011;13279;51.300;12.394;2023-07-31T01:08:29;5.67;;;1.90;;
25327;SDS011;13279;51.300;12.394;2023-07-31T01:11:06;5.33;;;1.77;;
25327;SDS011;13279;51.300;12.394;2023-07-31T01:13:39;14.67;;;2.03;;
25327;SDS011;13279;51.300;12.394;2023-07-31T01:16:09;6.17;;;2.10;;
25327;SDS011;13279;51.300;12.394;2023-07-31T01:18:36;2.27;;;1.67;;
25327;SDS011;13279;51.300;12.394;2023-07-31T01:21:06;6.93;;;2.20;;
25327;SDS011;13279;51.300;12.394;2023-07-31T01:26:49;6.67;;;1.90;;
25327;SDS011;13279;51.300;12.394;2023-07-31T01:29:23;4.27;;;1.90;;
25327;SDS011;13279;51.300;12.394;2023-07-31T01:31:59;5.60;;;1.90;;
25327;SDS011;13279;51.300;12.394;2023-07-31T01:34:29;3.07;;;1.90;;
25327;SDS011;13279;51.300;12.394;2023-07-31T01:36:58;6.73;;;1.87;;
25327;SDS011;13279;51.300;12.394;2023-07-31T01:39:25;6.37;;;1.90;;
25327;SDS011;13279;51.300;12.394;2023-07-31T01:41:54;3.60;;;1.90;;
25327;SDS011;13279;51.300;12.394;2023-07-31T01:44:22;4.77;;;1.80;;
25327;SDS011;13279;51.300;12.394;2023-07-31T01:46:50;5.03;;;2.07;;
25327;SDS011;13279;51.300;12.394;2023-07-31T01:49:17;3.97;;;2.00;;
25327;SDS011;13279;51.300;12.394;2023-07-31T01:51:45;4.87;;;1.90;;
25327;SDS011;13279;51.300;12.394;2023-07-31T01:54:13;7.80;;;2.83;;
25327;SDS011;13279;51.300;12.394;2023-07-31T01:56:41;4.90;;;1.60;;
25327;SDS011;13279;51.300;12.394;2023-07-31T01:59:10;4.20;;;2.27;;
25327;SDS011;13279;51.300;12.394;2023-07-31T02:01:37;4.90;;;2.30;;
25327;SDS011;13279;51.300;12.394;2023-07-31T02:04:05;5.63;;;1.70;;
25327;SDS011;13279;51.300;12.394;2023-07-31T02:06:33;5.20;;;2.70;;
25327;SDS011;13279;51.300;12.394;2023-07-31T02:09:00;7.13;;;2.50;;
25327;SDS011;13279;51.300;12.394;2023-07-31T02:11:31;8.60;;;1.97;;
25327;SDS011;13279;51.300;12.394;2023-07-31T02:13:58;3.90;;;1.70;;
25327;SDS011;13279;51.300;12.394;2023-07-31T02:16:27;7.67;;;1.57;;
25327;SDS011;13279;51.300;12.394;2023-07-31T02:18:55;5.87;;;1.90;;
25327;SDS011;13279;51.300;12.394;2023-07-31T02:21:22;4.57;;;2.00;;
25327;SDS011;13279;51.300;12.394;2023-07-31T02:23:50;7.00;;;1.80;;
25327;SDS011;13279;51.300;12.394;2023-07-31T02:26:18;7.50;;;2.00;;
25327;SDS011;13279;51.300;12.394;2023-07-31T02:28:44;3.80;;;1.80;;
25327;SDS011;13279;51.300;12.394;2023-07-31T02:31:12;3.70;;;1.93;;
25327;SDS011;13279;51.300;12.394;2023-07-31T02:33:41;3.90;;;1.77;;
25327;SDS011;13279;51.300;12.394;2023-07-31T02:36:09;4.83;;;1.70;;
25327;SDS011;13279;51.300;12.394;2023-07-31T02:38:36;4.97;;;1.83;;
25327;SDS011;13279;51.300;12.394;2023-07-31T02:41:05;3.77;;;1.70;;
25327;SDS011;13279;51.300;12.394;2023-07-31T02:43:32;6.57;;;1.97;;
25327;SDS011;13279;51.300;12.394;2023-07-31T02:46:00;2.67;;;1.97;;
25327;SDS011;13279;51.300;12.394;2023-07-31T02:48:27;10.53;;;1.80;;
25327;SDS011;13279;51.300;12.394;2023-07-31T02:50:57;4.90;;;2.00;;
25327;SDS011;13279;51.300;12.394;2023-07-31T02:53:24;3.87;;;1.93;;
25327;SDS011;13279;51.300;12.394;2023-07-31T02:55:52;9.83;;;2.10;;
25327;SDS011;13279;51.300;12.394;2023-07-31T02:58:19;9.97;;;2.27;;
25327;SDS011;13279;51.300;12.394;2023-07-31T03:00:47;3.87;;;2.00;;
25327;SDS011;13279;51.300;12.394;2023-07-31T03:03:14;8.70;;;1.50;;
25327;SDS011;13279;51.300;12.394;2023-07-31T03:05:41;8.27;;;2.10;;
25327;SDS011;13279;51.300;12.394;2023-07-31T03:08:10;7.00;;;1.93;;
25327;SDS011;13279;51.300;12.394;2023-07-31T03:10:38;14.63;;;2.13;;
25327;SDS011;13279;51.300;12.394;2023-07-31T03:13:05;6.67;;;1.70;;
25327;SDS011;13279;51.300;12.394;2023-07-31T03:15:33;11.20;;;2.40;;
25327;SDS011;13279;51.300;12.394;2023-07-31T03:18:00;6.87;;;2.00;;
25327;SDS011;13279;51.300;12.394;2023-07-31T03:20:28;3.80;;;1.90;;
25327;SDS011;13279;51.300;12.394;2023-07-31T03:22:55;4.07;;;2.00;;
25327;SDS011;13279;51.300;12.394;2023-07-31T03:25:24;4.93;;;2.03;;
25327;SDS011;13279;51.300;12.394;2023-07-31T03:27:51;4.97;;;2.10;;
25327;SDS011;13279;51.300;12.394;2023-07-31T03:30:19;3.33;;;1.90;;
25327;SDS011;13279;51.300;12.394;2023-07-31T03:32:46;7.33;;;2.30;;
25327;SDS011;13279;51.300;12.394;2023-07-31T03:35:13;8.40;;;2.00;;
25327;SDS011;13279;51.300;12.394;2023-07-31T03:37:42;8.03;;;2.40;;
25327;SDS011;13279;51.300;12.394;2023-07-31T03:40:10;4.23;;;2.03;;
25327;SDS011;13279;51.300;12.394;2023-07-31T03:42:39;5.80;;;2.10;;
25327;SDS011;13279;51.300;12.394;2023-07-31T03:45:07;3.10;;;1.83;;
25327;SDS011;13279;51.300;12.394;2023-07-31T03:47:35;8.33;;;2.50;;
25327;SDS011;13279;51.300;12.394;2023-07-31T03:50:03;2.40;;;2.10;;
25327;SDS011;13279;51.300;12.394;2023-07-31T03:52:30;7.10;;;1.80;;
25327;SDS011;13279;51.300;12.394;2023-07-31T03:55:00;5.80;;;2.10;;
25327;SDS011;13279;51.300;12.394;2023-07-31T03:57:27;8.90;;;2.80;;
25327;SDS011;13279;51.300;12.394;2023-07-31T03:59:56;6.27;;;2.17;;
25327;SDS011;13279;51.300;12.394;2023-07-31T04:02:23;4.07;;;2.10;;
25327;SDS011;13279;51.300;12.394;2023-07-31T04:04:51;7.33;;;2.10;;
25327;SDS011;13279;51.300;12.394;2023-07-31T04:07:18;5.83;;;2.47;;
25327;SDS011;13279;51.300;12.394;2023-07-31T04:09:46;3.07;;;1.80;;
25327;SDS011;13279;51.300;12.394;2023-07-31T04:12:13;6.73;;;1.90;;
25327;SDS011;13279;51.300;12.394;2023-07-31T04:14:40;4.33;;;2.30;;
25327;SDS011;13279;51.300;12.394;2023-07-31T04:17:09;5.10;;;2.40;;
25327;SDS011;13279;51.300;12.394;2023-07-31T04:19:37;4.73;;;2.03;;
25327;SDS011;13279;51.300;12.394;2023-07-31T04:22:04;4.10;;;2.30;;
25327;SDS011;13279;51.300;12.394;2023-07-31T04:24:31;6.73;;;2.23;;
25327;SDS011;13279;51.300;12.394;2023-07-31T04:26:59;7.60;;;2.60;;
25327;SDS011;13279;51.300;12.394;2023-07-31T04:29:26;7.20;;;2.17;;
25327;SDS011;13279;51.300;12.394;2023-07-31T04:31:53;8.27;;;2.43;;
25327;SDS011;13279;51.300;12.394;2023-07-31T04:34:22;4.43;;;2.30;;
25327;SDS011;13279;51.300;12.394;2023-07-31T04:36:49;7.77;;;2.40;;
25327;SDS011;13279;51.300;12.394;2023-07-31T04:39:17;8.10;;;2.63;;
25327;SDS011;13279;51.300;12.394;2023-07-31T04:41:44;4.47;;;2.20;;
25327;SDS011;13279;51.300;12.394;2023-07-31T04:44:12;2.80;;;2.17;;
25327;SDS011;13279;51.300;12.394;2023-07-31T04:46:39;6.63;;;2.83;;
25327;SDS011;13279;51.300;12.394;2023-07-31T04:49:07;8.33;;;3.00;;
25327;SDS011;13279;51.300;12.394;2023-07-31T04:51:35;8.77;;;2.50;;
25327;SDS011;13279;51.300;12.394;2023-07-31T04:54:03;6.13;;;2.50;;
25327;SDS011;13279;51.300;12.394;2023-07-31T04:56:30;3.43;;;2.50;;
25327;SDS011;13279;51.300;12.394;2023-07-31T04:58:58;5.43;;;2.50;;
25327;SDS011;13279;51.300;12.394;2023-07-31T05:01:25;8.00;;;2.63;;
25327;SDS011;13279;51.300;12.394;2023-07-31T05:03:53;5.07;;;2.73;;
25327;SDS011;13279;51.300;12.394;2023-07-31T05:06:20;8.83;;;2.90;;
25327;SDS011;13279;51.300;12.394;2023-07-31T05:08:49;7.87;;;2.57;;
25327;SDS011;13279;51.300;12.394;2023-07-31T05:11:16;10.27;;;3.40;;
25327;SDS011;13279;51.300;12.394;2023-07-31T05:13:43;6.67;;;3.57;;
25327;SDS011;13279;51.300;12.394;2023-07-31T05:16:10;4.90;;;3.10;;
25327;SDS011;13279;51.300;12.394;2023-07-31T05:18:38;5.27;;;3.00;;
25327;SDS011;13279;51.300;12.394;2023-07-31T05:21:05;7.83;;;3.10;;
25327;SDS011;13279;51.300;12.394;2023-07-31T05:23:32;9.40;;;3.50;;
25327;SDS011;13279;51.300;12.394;2023-07-31T05:26:03;7.80;;;3.57;;
25327;SDS011;13279;51.300;12.394;2023-07-31T05:28:31;8.20;;;3.43;;
25327;SDS011;13279;51.300;12.394;2023-07-31T05:31:00;4.33;;;3.17;;
25327;SDS011;13279;51.300;12.394;2023-07-31T05:33:27;8.53;;;3.53;;
25327;SDS011;13279;51.300;12.394;2023-07-31T05:35:55;11.40;;;3.87;;
25327;SDS011;13279;51.300;12.394;2023-07-31T05:38:22;5.37;;;3.67;;
25327;SDS011;13279;51.300;12.394;2023-07-31T05:40:50;6.00;;;3.97;;
25327;SDS011;13279;51.300;12.394;2023-07-31T05:43:19;8.43;;;3.87;;
25327;SDS011;13279;51.300;12.394;2023-07-31T05:45:46;9.07;;;4.07;;
25327;SDS011;13279;51.300;12.394;2023-07-31T05:48:14;11.43;;;4.27;;
25327;SDS011;13279;51.300;12.394;2023-07-31T05:50:41;10.67;;;3.67;;
25327;SDS011;13279;51.300;12.394;2023-07-31T05:53:10;7.10;;;3.50;;
25327;SDS011;13279;51.300;12.394;2023-07-31T05:55:37;11.57;;;3.80;;
25327;SDS011;13279;51.300;12.394;2023-07-31T05:58:04;10.27;;;3.57;;
25327;SDS011;13279;51.300;12.394;2023-07-31T06:00:33;5.03;;;3.60;;
25327;SDS011;13279;51.300;12.394;2023-07-31T06:03:01;9.03;;;3.63;;
25327;SDS011;13279;51.300;12.394;2023-07-31T06:05:28;10.10;;;3.53;;
25327;SDS011;13279;51.300;12.394;2023-07-31T06:07:55;8.80;;;3.57;;
25327;SDS011;13279;51.300;12.394;2023-07-31T06:10:23;8.07;;;3.50;;
25327;SDS011;13279;51.300;12.394;2023-07-31T06:12:51;10.07;;;3.87;;
25327;SDS011;13279;51.300;12.394;2023-07-31T06:15:19;5.63;;;2.90;;
25327;SDS011;13279;51.300;12.394;2023-07-31T06:17:49;8.77;;;3.70;;
25327;SDS011;13279;51.300;12.394;2023-07-31T06:20:16;6.10;;;3.30;;
25327;SDS011;13279;51.300;12.394;2023-07-31T06:22:44;9.63;;;3.53;;
25327;SDS011;13279;51.300;12.394;2023-07-31T06:25:11;10.90;;;3.23;;
25327;SDS011;13279;51.300;12.394;2023-07-31T06:27:39;3.93;;;3.30;;
25327;SDS011;13279;51.300;12.394;2023-07-31T06:30:06;7.10;;;2.80;;
25327;SDS011;13279;51.300;12.394;2023-07-31T06:32:34;6.50;;;2.73;;
25327;SDS011;13279;51.300;12.394;2023-07-31T06:35:03;5.53;;;2.20;;
25327;SDS011;13279;51.300;12.394;2023-07-31T06:37:31;8.47;;;2.73;;
25327;SDS011;13279;51.300;12.394;2023-07-31T06:39:58;7.10;;;2.90;;
25327;SDS011;13279;51.300;12.394;2023-07-31T06:42:26;8.30;;;3.30;;
25327;SDS011;13279;51.300;12.394;2023-07-31T06:44:53;9.23;;;3.30;;
25327;SDS011;13279;51.300;12.394;2023-07-31T06:47:21;9.47;;;3.73;;
25327;SDS011;13279;51.300;12.394;2023-07-31T06:49:48;6.27;;;2.63;;
25327;SDS011;13279;51.300;12.394;2023-07-31T06:52:17;5.33;;;3.03;;
25327;SDS011;13279;51.300;12.394;2023-07-31T06:54:44;2.73;;;2.50;;
25327;SDS011;13279;51.300;12.394;2023-07-31T06:57:27;4.23;;;2.77;;
25327;SDS011;13279;51.300;12.394;2023-07-31T06:59:54;10.57;;;2.60;;
25327;SDS011;13279;51.300;12.394;2023-07-31T07:02:21;5.23;;;2.83;;
25327;SDS011;13279;51.300;12.394;2023-07-31T07:04:49;4.10;;;2.60;;
25327;SDS011;13279;51.300;12.394;2023-07-31T07:07:18;5.20;;;2.80;;
25327;SDS011;13279;51.300;12.394;2023-07-31T07:09:45;3.53;;;2.70;;
25327;SDS011;13279;51.300;12.394;2023-07-31T07:12:13;8.50;;;2.97;;
25327;SDS011;13279;51.300;12.394;2023-07-31T07:14:40;3.60;;;3.13;;
25327;SDS011;13279;51.300;12.394;2023-07-31T07:17:08;11.47;;;2.63;;
25327;SDS011;13279;51.300;12.394;2023-07-31T07:19:35;8.43;;;2.73;;
25327;SDS011;13279;51.300;12.394;2023-07-31T07:22:03;8.60;;;2.83;;
25327;SDS011;13279;51.300;12.394;2023-07-31T07:24:32;12.03;;;3.33;;
25327;SDS011;13279;51.300;12.394;2023-07-31T07:27:00;7.60;;;2.40;;
25327;SDS011;13279;51.300;12.394;2023-07-31T07:29:27;5.83;;;3.10;;
25327;SDS011;13279;51.300;12.394;2023-07-31T07:31:55;6.53;;;2.87;;
25327;SDS011;13279;51.300;12.394;2023-07-31T07:34:22;11.17;;;3.40;;
25327;SDS011;13279;51.300;12.394;2023-07-31T07:36:51;3.10;;;2.40;;
25327;SDS011;13279;51.300;12.394;2023-07-31T07:39:18;10.33;;;2.57;;
25327;SDS011;13279;51.300;12.394;2023-07-31T07:41:47;5.30;;;2.60;;
25327;SDS011;13279;51.300;12.394;2023-07-31T07:44:15;5.47;;;2.97;;
25327;SDS011;13279;51.300;12.394;2023-07-31T07:46:42;5.93;;;2.40;;
25327;SDS011;13279;51.300;12.394;2023-07-31T07:49:10;4.03;;;2.87;;
25327;SDS011;13279;51.300;12.394;2023-07-31T07:51:37;5.20;;;2.50;;
25327;SDS011;13279;51.300;12.394;2023-07-31T07:54:04;7.77;;;2.57;;
25327;SDS011;13279;51.300;12.394;2023-07-31T07:56:32;4.17;;;2.47;;
25327;SDS011;13279;51.300;12.394;2023-07-31T07:59:02;2.00;;;1.90;;
25327;SDS011;13279;51.300;12.394;2023-07-31T08:01:30;6.97;;;2.30;;
25327;SDS011;13279;51.300;12.394;2023-07-31T08:03:57;8.10;;;2.63;;
25327;SDS011;13279;51.300;12.394;2023-07-31T08:06:25;4.93;;;2.50;;
25327;SDS011;13279;51.300;12.394;2023-07-31T08:08:53;4.37;;;2.43;;
25327;SDS011;13279;51.300;12.394;2023-07-31T08:11:20;3.10;;;2.00;;
25327;SDS011;13279;51.300;12.394;2023-07-31T08:13:48;6.67;;;2.57;;
25327;SDS011;13279;51.300;12.394;2023-07-31T08:16:17;4.40;;;2.07;;
25327;SDS011;13279;51.300;12.394;2023-07-31T08:18:45;5.23;;;2.53;;
25327;SDS011;13279;51.300;12.394;2023-07-31T08:21:12;4.20;;;3.00;;
25327;SDS011;13279;51.300;12.394;2023-07-31T08:23:40;6.97;;;2.23;;
25327;SDS011;13279;51.300;12.394;2023-07-31T08:26:07;7.73;;;2.60;;
25327;SDS011;13279;51.300;12.394;2023-07-31T08:28:41;8.13;;;2.07;;
25327;SDS011;13279;51.300;12.394;2023-07-31T08:31:08;5.40;;;3.03;;
25327;SDS011;13279;51.300;12.394;2023-07-31T08:33:37;7.40;;;2.53;;
25327;SDS011;13279;51.300;12.394;2023-07-31T08:36:05;9.23;;;3.20;;
25327;SDS011;13279;51.300;12.394;2023-07-31T08:38:33;4.67;;;2.30;;
25327;SDS011;13279;51.300;12.394;2023-07-31T08:41:00;4.60;;;2.40;;
25327;SDS011;13279;51.300;12.394;2023-07-31T08:43:30;5.87;;;2.60;;
25327;SDS011;13279;51.300;12.394;2023-07-31T08:45:59;6.20;;;2.27;;
25327;SDS011;13279;51.300;12.394;2023-07-31T08:48:28;2.57;;;2.03;;
25327;SDS011;13279;51.300;12.394;2023-07-31T08:50:59;7.80;;;2.30;;
25327;SDS011;13279;51.300;12.394;2023-07-31T08:53:26;7.37;;;2.90;;
25327;SDS011;13279;51.300;12.394;2023-07-31T08:55:53;7.63;;;2.90;;
25327;SDS011;13279;51.300;12.394;2023-07-31T08:58:21;4.53;;;2.17;;
25327;SDS011;13279;51.300;12.394;2023-07-31T09:00:50;8.07;;;2.20;;
25327;SDS011;13279;51.300;12.394;2023-07-31T09:03:19;5.43;;;2.50;;
25327;SDS011;13279;51.300;12.394;2023-07-31T09:05:50;3.07;;;2.10;;
25327;SDS011;13279;51.300;12.394;2023-07-31T09:08:19;5.20;;;2.60;;
25327;SDS011;13279;51.300;12.394;2023-07-31T09:10:48;5.63;;;2.30;;
25327;SDS011;13279;51.300;12.394;2023-07-31T09:13:16;4.97;;;2.20;;
25327;SDS011;13279;51.300;12.394;2023-07-31T09:15:44;5.40;;;2.40;;
25327;SDS011;13279;51.300;12.394;2023-07-31T09:18:12;4.03;;;2.03;;
25327;SDS011;13279;51.300;12.394;2023-07-31T09:20:43;5.70;;;2.43;;
25327;SDS011;13279;51.300;12.394;2023-07-31T09:23:10;10.90;;;2.97;;
25327;SDS011;13279;51.300;12.394;2023-07-31T09:25:43;4.67;;;2.83;;
25327;SDS011;13279;51.300;12.394;2023-07-31T09:28:11;2.87;;;2.23;;
25327;SDS011;13279;51.300;12.394;2023-07-31T09:30:45;6.97;;;3.20;;
25327;SDS011;13279;51.300;12.394;2023-07-31T09:33:14;5.20;;;2.20;;
25327;SDS011;13279;51.300;12.394;2023-07-31T09:35:42;5.07;;;2.90;;
25327;SDS011;13279;51.300;12.394;2023-07-31T09:38:11;4.90;;;2.37;;
25327;SDS011;13279;51.300;12.394;2023-07-31T09:40:41;6.97;;;2.70;;
25327;SDS011;13279;51.300;12.394;2023-07-31T09:43:10;8.40;;;2.80;;
25327;SDS011;13279;51.300;12.394;2023-07-31T09:45:39;5.97;;;2.80;;
25327;SDS011;13279;51.300;12.394;2023-07-31T09:48:08;10.13;;;2.50;;
25327;SDS011;13279;51.300;12.394;2023-07-31T09:50:36;7.43;;;2.60;;
25327;SDS011;13279;51.300;12.394;2023-07-31T09:53:05;6.57;;;2.70;;
25327;SDS011;13279;51.300;12.394;2023-07-31T09:55:32;4.60;;;2.33;;
25327;SDS011;13279;51.300;12.394;2023-07-31T09:58:03;6.17;;;2.10;;
25327;SDS011;13279;51.300;12.394;2023-07-31T10:00:32;11.13;;;2.63;;
25327;SDS011;13279;51.300;12.394;2023-07-31T10:03:00;3.07;;;2.30;;
25327;SDS011;13279;51.300;12.394;2023-07-31T10:05:30;2.93;;;2.30;;
25327;SDS011;13279;51.300;12.394;2023-07-31T10:08:02;4.83;;;2.40;;
25327;SDS011;13279;51.300;12.394;2023-07-31T10:10:30;3.13;;;2.57;;
25327;SDS011;13279;51.300;12.394;2023-07-31T10:12:59;6.23;;;2.77;;
25327;SDS011;13279;51.300;12.394;2023-07-31T10:15:28;6.43;;;2.80;;
25327;SDS011;13279;51.300;12.394;2023-07-31T10:17:57;6.20;;;2.43;;
25327;SDS011;13279;51.300;12.394;2023-07-31T10:20:25;4.30;;;2.43;;
25327;SDS011;13279;51.300;12.394;2023-07-31T10:22:53;6.67;;;2.73;;
25327;SDS011;13279;51.300;12.394;2023-07-31T10:25:21;5.53;;;2.93;;
25327;SDS011;13279;51.300;12.394;2023-07-31T10:27:50;4.77;;;2.57;;
25327;SDS011;13279;51.300;12.394;2023-07-31T10:30:20;2.73;;;2.00;;
25327;SDS011;13279;51.300;12.394;2023-07-31T10:32:52;4.63;;;2.00;;
25327;SDS011;13279;51.300;12.394;2023-07-31T10:35:21;3.97;;;2.77;;
25327;SDS011;13279;51.300;12.394;2023-07-31T10:37:49;6.37;;;2.83;;
25327;SDS011;13279;51.300;12.394;2023-07-31T10:40:16;7.57;;;2.63;;
25327;SDS011;13279;51.300;12.394;2023-07-31T10:42:46;4.47;;;2.40;;
25327;SDS011;13279;51.300;12.394;2023-07-31T10:45:23;4.17;;;2.40;;
25327;SDS011;13279;51.300;12.394;2023-07-31T10:47:59;6.57;;;2.77;;
25327;SDS011;13279;51.300;12.394;2023-07-31T10:50:27;2.30;;;2.10;;
25327;SDS011;13279;51.300;12.394;2023-07-31T10:52:58;4.97;;;2.50;;
25327;SDS011;13279;51.300;12.394;2023-07-31T10:55:30;5.37;;;2.20;;
25327;SDS011;13279;51.300;12.394;2023-07-31T10:58:05;4.33;;;2.90;;
25327;SDS011;13279;51.300;12.394;2023-07-31T11:00:33;3.33;;;2.43;;
25327;SDS011;13279;51.300;12.394;2023-07-31T11:03:05;6.63;;;2.73;;
25327;SDS011;13279;51.300;12.394;2023-07-31T11:05:40;6.07;;;2.20;;
25327;SDS011;13279;51.300;12.394;2023-07-31T11:08:12;8.73;;;2.63;;
25327;SDS011;13279;51.300;12.394;2023-07-31T11:10:41;4.60;;;2.70;;
25327;SDS011;13279;51.300;12.394;2023-07-31T11:13:08;5.37;;;2.37;;
25327;SDS011;13279;51.300;12.394;2023-07-31T11:15:36;6.80;;;2.77;;
25327;SDS011;13279;51.300;12.394;2023-07-31T11:18:04;8.40;;;2.50;;
25327;SDS011;13279;51.300;12.394;2023-07-31T11:20:33;4.50;;;2.20;;
25327;SDS011;13279;51.300;12.394;2023-07-31T11:23:02;4.73;;;2.60;;
25327;SDS011;13279;51.300;12.394;2023-07-31T11:25:32;4.50;;;2.67;;
25327;SDS011;13279;51.300;12.394;2023-07-31T11:28:02;3.43;;;2.30;;
25327;SDS011;13279;51.300;12.394;2023-07-31T11:30:30;3.60;;;2.37;;
25327;SDS011;13279;51.300;12.394;2023-07-31T11:32:59;4.00;;;2.10;;
25327;SDS011;13279;51.300;12.394;2023-07-31T11:35:31;4.97;;;2.53;;
25327;SDS011;13279;51.300;12.394;2023-07-31T11:38:00;10.50;;;2.50;;
25327;SDS011;13279;51.300;12.394;2023-07-31T11:40:28;2.50;;;2.23;;
25327;SDS011;13279;51.300;12.394;2023-07-31T11:42:56;5.80;;;2.50;;
25327;SDS011;13279;51.300;12.394;2023-07-31T11:45:24;5.73;;;2.87;;
25327;SDS011;13279;51.300;12.394;2023-07-31T11:47:54;3.43;;;2.50;;
25327;SDS011;13279;51.300;12.394;2023-07-31T11:50:23;7.50;;;2.53;;
25327;SDS011;13279;51.300;12.394;2023-07-31T11:52:55;9.00;;;2.77;;
25327;SDS011;13279;51.300;12.394;2023-07-31T11:55:25;4.37;;;2.60;;
25327;SDS011;13279;51.300;12.394;2023-07-31T11:57:54;4.17;;;2.63;;
25327;SDS011;13279;51.300;12.394;2023-07-31T12:00:24;3.83;;;2.53;;
25327;SDS011;13279;51.300;12.394;2023-07-31T12:02:52;4.20;;;2.63;;
25327;SDS011;13279;51.300;12.394;2023-07-31T12:05:20;7.77;;;3.10;;
25327;SDS011;13279;51.300;12.394;2023-07-31T12:07:49;8.30;;;3.77;;
25327;SDS011;13279;51.300;12.394;2023-07-31T12:10:28;6.10;;;3.10;;
25327;SDS011;13279;51.300;12.394;2023-07-31T12:12:58;4.40;;;2.50;;
25327;SDS011;13279;51.300;12.394;2023-07-31T12:15:34;4.27;;;2.83;;
25327;SDS011;13279;51.300;12.394;2023-07-31T12:18:04;4.60;;;3.50;;
25327;SDS011;13279;51.300;12.394;2023-07-31T12:20:32;7.17;;;2.67;;
25327;SDS011;13279;51.300;12.394;2023-07-31T12:23:00;4.17;;;2.73;;
25327;SDS011;13279;51.300;12.394;2023-07-31T12:25:30;6.00;;;3.00;;
25327;SDS011;13279;51.300;12.394;2023-07-31T12:28:03;5.30;;;2.47;;
25327;SDS011;13279;51.300;12.394;2023-07-31T12:30:33;6.50;;;2.93;;
25327;SDS011;13279;51.300;12.394;2023-07-31T12:33:04;3.90;;;2.60;;
25327;SDS011;13279;51.300;12.394;2023-07-31T12:35:36;5.33;;;2.67;;
25327;SDS011;13279;51.300;12.394;2023-07-31T12:38:05;3.47;;;2.53;;
25327;SDS011;13279;51.300;12.394;2023-07-31T12:40:35;6.50;;;2.70;;
25327;SDS011;13279;51.300;12.394;2023-07-31T12:43:04;5.73;;;3.00;;
25327;SDS011;13279;51.300;12.394;2023-07-31T12:45:32;6.73;;;3.10;;
25327;SDS011;13279;51.300;12.394;2023-07-31T12:48:00;3.70;;;2.53;;
25327;SDS011;13279;51.300;12.394;2023-07-31T12:50:28;6.43;;;2.70;;
25327;SDS011;13279;51.300;12.394;2023-07-31T12:52:56;5.63;;;2.60;;
25327;SDS011;13279;51.300;12.394;2023-07-31T12:55:24;9.27;;;3.40;;
25327;SDS011;13279;51.300;12.394;2023-07-31T12:57:53;7.27;;;3.17;;
25327;SDS011;13279;51.300;12.394;2023-07-31T13:00:21;4.57;;;2.57;;
25327;SDS011;13279;51.300;12.394;2023-07-31T13:02:49;4.37;;;2.90;;
25327;SDS011;13279;51.300;12.394;2023-07-31T13:05:16;3.83;;;2.40;;
25327;SDS011;13279;51.300;12.394;2023-07-31T13:07:45;4.53;;;2.87;;
25327;SDS011;13279;51.300;12.394;2023-07-31T13:10:12;3.17;;;2.70;;
25327;SDS011;13279;51.300;12.394;2023-07-31T13:12:40;6.73;;;2.70;;
25327;SDS011;13279;51.300;12.394;2023-07-31T13:15:09;5.43;;;2.23;;
25327;SDS011;13279;51.300;12.394;2023-07-31T13:17:36;5.63;;;2.73;;
25327;SDS011;13279;51.300;12.394;2023-07-31T13:20:04;2.83;;;2.30;;
25327;SDS011;13279;51.300;12.394;2023-07-31T13:22:33;3.30;;;2.50;;
25327;SDS011;13279;51.300;12.394;2023-07-31T13:25:00;4.73;;;2.60;;
25327;SDS011;13279;51.300;12.394;2023-07-31T13:27:28;5.87;;;2.20;;
25327;SDS011;13279;51.300;12.394;2023-07-31T13:29:56;2.70;;;1.77;;
25327;SDS011;13279;51.300;12.394;2023-07-31T13:32:25;3.83;;;2.47;;
25327;SDS011;13279;51.300;12.394;2023-07-31T13:34:53;8.37;;;2.53;;
25327;SDS011;13279;51.300;12.394;2023-07-31T13:37:20;6.30;;;1.90;;
25327;SDS011;13279;51.300;12.394;2023-07-31T13:39:48;4.23;;;2.23;;
25327;SDS011;13279;51.300;12.394;2023-07-31T13:42:15;4.83;;;2.10;;
25327;SDS011;13279;51.300;12.394;2023-07-31T13:44:43;4.47;;;2.27;;
25327;SDS011;13279;51.300;12.394;2023-07-31T13:47:10;3.60;;;2.00;;
25327;SDS011;13279;51.300;12.394;2023-07-31T13:49:40;2.53;;;2.00;;
25327;SDS011;13279;51.300;12.394;2023-07-31T13:52:09;3.83;;;2.30;;
25327;SDS011;13279;51.300;12.394;2023-07-31T13:54:36;3.60;;;1.90;;
25327;SDS011;13279;51.300;12.394;2023-07-31T13:57:04;2.63;;;2.17;;
25327;SDS011;13279;51.300;12.394;2023-07-31T13:59:32;2.33;;;1.87;;
25327;SDS011;13279;51.300;12.394;2023-07-31T14:02:00;5.50;;;2.33;;
25327;SDS011;13279;51.300;12.394;2023-07-31T14:04:28;4.70;;;1.90;;
25327;SDS011;13279;51.300;12.394;2023-07-31T14:06:57;7.40;;;2.40;;
25327;SDS011;13279;51.300;12.394;2023-07-31T14:09:25;2.50;;;2.30;;
25327;SDS011;13279;51.300;12.394;2023-07-31T14:11:54;2.50;;;2.30;;
25327;SDS011;13279;51.300;12.394;2023-07-31T14:14:21;3.73;;;2.20;;
25327;SDS011;13279;51.300;12.394;2023-07-31T14:16:49;4.47;;;2.10;;
25327;SDS011;13279;51.300;12.394;2023-07-31T14:19:16;3.63;;;2.30;;
25327;SDS011;13279;51.300;12.394;2023-07-31T14:21:43;4.97;;;2.30;;
25327;SDS011;13279;51.300;12.394;2023-07-31T14:24:12;5.40;;;3.27;;
25327;SDS011;13279;51.300;12.394;2023-07-31T14:26:40;5.03;;;2.40;;
25327;SDS011;13279;51.300;12.394;2023-07-31T14:29:08;4.37;;;2.53;;
25327;SDS011;13279;51.300;12.394;2023-07-31T14:31:35;2.43;;;2.20;;
25327;SDS011;13279;51.300;12.394;2023-07-31T14:34:02;5.07;;;2.17;;
25327;SDS011;13279;51.300;12.394;2023-07-31T14:36:30;3.10;;;2.23;;
25327;SDS011;13279;51.300;12.394;2023-07-31T14:38:57;3.83;;;2.20;;
25327;SDS011;13279;51.300;12.394;2023-07-31T14:41:26;3.73;;;2.20;;
25327;SDS011;13279;51.300;12.394;2023-07-31T14:43:54;4.40;;;1.93;;